createdAt,value
2023-03-20T00:04:55.902Z,5.28
2023-03-20T00:10:00.558Z,5.37
2023-03-20T00:15:07.905Z,5.44
2023-03-20T00:20:17.631Z,5.47
2023-03-20T00:25:24.334Z,5.51
2023-03-20T00:30:30.630Z,5.46
2023-03-20T00:35:37.086Z,5.56
2023-03-20T00:40:42.936Z,5.57
2023-03-20T00:45:48.344Z,5.61
2023-03-20T00:50:54.706Z,5.64
2023-03-20T00:55:59.056Z,5.72
2023-03-20T01:01:03.205Z,5.80
2023-03-20T01:06:10.380Z,5.86
2023-03-20T01:11:14.675Z,5.86
2023-03-20T01:16:22.113Z,5.90
2023-03-20T01:21:27.447Z,5.90
2023-03-20T01:26:34.266Z,5.92
2023-03-20T01:31:38.711Z,5.89
2023-03-20T01:36:47.052Z,5.91
2023-03-20T01:41:52.094Z,5.91
2023-03-20T01:46:56.591Z,5.91
2023-03-20T01:52:02.116Z,5.85
2023-03-20T01:57:12.313Z,5.89
2023-03-20T02:02:20.468Z,5.80
2023-03-20T02:07:26.664Z,5.78
2023-03-20T02:12:37.511Z,5.71
2023-03-20T02:17:43.893Z,5.71
2023-03-20T02:23:18.871Z,5.63
2023-03-20T02:29:01.258Z,5.52
2023-03-20T02:34:30.830Z,5.49
2023-03-20T02:39:48.321Z,5.38
2023-03-20T02:44:58.877Z,5.33
2023-03-20T02:50:08.807Z,5.39
2023-03-20T02:55:19.724Z,5.46
2023-03-20T03:00:28.966Z,5.56
2023-03-20T03:05:37.845Z,5.56
2023-03-20T03:10:45.358Z,5.60
2023-03-20T03:15:52.752Z,5.71
2023-03-20T03:20:59.644Z,5.80
2023-03-20T03:26:08.693Z,5.83
2023-03-20T03:31:14.391Z,5.91
2023-03-20T03:36:27.194Z,5.94
2023-03-20T03:41:36.314Z,6.01
2023-03-20T03:46:45.112Z,6.05
2023-03-20T03:51:52.226Z,6.09
2023-03-20T03:56:58.715Z,6.16
2023-03-20T04:02:04.482Z,6.21
2023-03-20T04:07:08.556Z,6.22
2023-03-20T04:12:31.278Z,6.25
2023-03-20T04:17:36.433Z,6.28
2023-03-20T04:22:41.096Z,6.27
2023-03-20T04:27:50.322Z,6.24
2023-03-20T04:33:05.661Z,6.34
2023-03-20T04:38:25.872Z,6.31
2023-03-20T04:43:32.970Z,6.24
2023-03-20T04:48:37.150Z,6.19
2023-03-20T04:53:41.428Z,6.26
2023-03-20T04:58:46.978Z,6.31
2023-03-20T05:03:53.211Z,6.15
2023-03-20T05:08:59.247Z,6.16
2023-03-20T05:14:05.178Z,6.34
2023-03-20T05:19:09.240Z,6.25
2023-03-20T05:24:29.121Z,6.39
2023-03-20T05:29:44.916Z,6.62
2023-03-20T05:35:04.771Z,6.67
2023-03-20T05:40:20.504Z,6.85
2023-03-20T05:45:46.136Z,6.89
2023-03-20T05:51:08.970Z,6.77
2023-03-20T05:56:39.221Z,6.79
2023-03-20T06:02:02.114Z,6.92
2023-03-20T06:07:11.547Z,6.93
2023-03-20T06:12:18.619Z,7.10
2023-03-20T06:17:24.446Z,7.30
2023-03-20T06:22:35.642Z,7.49
2023-03-20T06:27:40.093Z,7.68
2023-03-20T06:32:46.007Z,7.78
2023-03-20T06:37:50.764Z,7.91
2023-03-20T06:42:59.971Z,8.08
2023-03-20T06:48:16.234Z,8.16
2023-03-20T06:53:20.705Z,8.17
2023-03-20T06:58:39.526Z,8.21
2023-03-20T07:03:45.591Z,8.20
2023-03-20T07:08:53.002Z,8.36
2023-03-20T07:13:59.684Z,8.44
2023-03-20T07:19:17.422Z,8.47
2023-03-20T07:24:24.441Z,8.59
2023-03-20T07:29:28.778Z,8.66
2023-03-20T07:34:35.474Z,8.72
2023-03-20T07:39:39.676Z,8.83
2023-03-20T07:45:02.759Z,8.88
2023-03-20T07:50:09.678Z,8.95
2023-03-20T07:55:13.729Z,9.05
2023-03-20T08:00:19.040Z,9.04
2023-03-20T08:05:24.541Z,9.10
2023-03-20T08:10:28.962Z,9.03
2023-03-20T08:15:33.232Z,8.96
2023-03-20T08:20:38.865Z,9.11
2023-03-20T08:25:43.037Z,9.23
2023-03-20T08:30:47.365Z,9.22
2023-03-20T08:35:59.547Z,9.27
2023-03-20T08:41:03.689Z,9.33
2023-03-20T08:46:08.607Z,9.46
2023-03-20T08:51:15.066Z,9.62
2023-03-20T08:56:19.204Z,9.64
2023-03-20T09:01:23.511Z,9.55
2023-03-20T09:06:29.194Z,9.65
2023-03-20T09:11:33.538Z,9.45
2023-03-20T09:16:37.765Z,9.64
2023-03-20T09:21:43.366Z,9.76
2023-03-20T09:26:47.365Z,9.80
2023-03-20T09:31:51.502Z,10.03
2023-03-20T09:36:57.355Z,10.24
2023-03-20T09:42:07.359Z,10.43
2023-03-20T09:47:20.915Z,10.77
2023-03-20T09:52:31.926Z,11.09
2023-03-20T09:57:40.445Z,11.04
2023-03-20T10:02:49.578Z,11.07
2023-03-20T10:07:56.993Z,10.94
2023-03-20T10:13:09.905Z,11.18
2023-03-20T10:18:19.763Z,11.25
2023-03-20T10:23:28.691Z,11.39
2023-03-20T10:28:36.410Z,11.52
2023-03-20T10:33:49.158Z,11.39
2023-03-20T10:38:59.972Z,11.32
2023-03-20T10:44:04.397Z,11.40
2023-03-20T10:49:14.323Z,11.50
2023-03-20T10:54:26.506Z,11.47
2023-03-20T10:59:35.037Z,11.43
2023-03-20T11:04:39.631Z,11.21
2023-03-20T11:09:45.300Z,11.24
2023-03-20T11:14:49.590Z,11.18
2023-03-20T11:19:53.689Z,11.12
2023-03-20T11:25:01.782Z,10.99
2023-03-20T11:30:08.871Z,10.95
2023-03-20T11:35:21.108Z,10.97
2023-03-20T11:40:31.376Z,10.95
2023-03-20T11:45:37.377Z,10.95
2023-03-20T11:50:45.376Z,10.94
2023-03-20T11:56:02.927Z,11.08
2023-03-20T12:01:10.257Z,11.04
2023-03-20T12:06:19.695Z,11.13
2023-03-20T12:11:37.160Z,11.09
2023-03-20T12:16:45.190Z,11.16
2023-03-20T12:21:53.435Z,11.15
2023-03-20T12:27:12.563Z,11.17
2023-03-20T12:32:21.240Z,11.10
2023-03-20T12:37:25.356Z,10.96
2023-03-20T12:42:40.140Z,10.88
2023-03-20T12:47:58.504Z,11.03
2023-03-20T12:53:12.799Z,11.11
2023-03-20T12:58:26.250Z,11.03
2023-03-20T13:04:08.502Z,11.04
2023-03-20T13:09:48.058Z,11.06
2023-03-20T13:15:00.779Z,11.16
2023-03-20T13:20:22.568Z,11.25
2023-03-20T13:25:43.482Z,11.33
2023-03-20T13:30:55.124Z,11.46
2023-03-20T13:36:03.915Z,11.69
2023-03-20T13:41:10.016Z,11.68
2023-03-20T13:46:19.709Z,11.75
2023-03-20T13:51:30.603Z,11.75
2023-03-20T13:56:41.749Z,11.83
2023-03-20T14:01:52.035Z,11.94
2023-03-20T14:06:57.266Z,12.04
2023-03-20T14:12:07.497Z,12.30
2023-03-20T14:17:19.222Z,12.12
2023-03-20T14:22:24.889Z,12.03
2023-03-20T14:27:43.886Z,12.15
2023-03-20T14:33:00.313Z,12.23
2023-03-20T14:38:16.296Z,12.07
2023-03-20T14:43:30.438Z,11.90
2023-03-20T14:48:38.912Z,11.87
2023-03-20T14:53:43.382Z,11.89
2023-03-20T14:58:50.776Z,11.97
2023-03-20T15:03:58.952Z,12.06
2023-03-20T15:09:06.783Z,12.23
2023-03-20T15:14:12.337Z,12.31
2023-03-20T15:19:19.762Z,12.29
2023-03-20T15:24:24.876Z,12.35
2023-03-20T15:29:30.672Z,12.47
2023-03-20T15:34:36.211Z,12.36
2023-03-20T15:39:44.645Z,12.25
2023-03-20T15:44:50.389Z,12.29
2023-03-20T15:49:57.229Z,12.18
2023-03-20T15:55:05.305Z,12.24
2023-03-20T16:00:15.427Z,12.29
2023-03-20T16:05:26.309Z,12.20
2023-03-20T16:10:36.230Z,11.95
2023-03-20T16:15:41.153Z,11.82
2023-03-20T16:20:50.729Z,11.60
2023-03-20T16:25:58.653Z,11.41
2023-03-20T16:31:09.337Z,11.30
2023-03-20T16:36:18.901Z,11.09
2023-03-20T16:41:28.440Z,10.80
2023-03-20T16:46:32.697Z,10.60
2023-03-20T16:51:38.582Z,10.37
2023-03-20T16:56:42.615Z,10.11
2023-03-20T17:01:48.866Z,10.02
2023-03-20T17:06:56.977Z,9.94
2023-03-20T17:12:04.289Z,9.68
2023-03-20T17:17:12.797Z,9.55
2023-03-20T17:22:20.053Z,9.65
2023-03-20T17:27:24.501Z,9.65
2023-03-20T17:32:28.769Z,9.67
2023-03-20T17:37:34.504Z,9.71
2023-03-20T17:42:39.570Z,9.77
2023-03-20T17:47:44.191Z,9.79
2023-03-20T17:52:49.742Z,9.84
2023-03-20T17:57:54.134Z,9.84
2023-03-20T18:02:58.629Z,9.87
2023-03-20T18:08:03.977Z,9.56
2023-03-20T18:13:07.895Z,9.07
2023-03-20T18:18:12.369Z,8.82
2023-03-20T18:23:18.037Z,8.84
2023-03-20T18:28:23.547Z,8.80
2023-03-20T18:33:28.393Z,8.71
2023-03-20T18:38:34.300Z,8.66
2023-03-20T18:43:38.781Z,8.56
2023-03-20T18:48:43.518Z,8.40
2023-03-20T18:53:49.078Z,8.27
2023-03-20T18:58:54.194Z,8.23
2023-03-20T19:03:58.485Z,8.14
2023-03-20T19:09:05.664Z,8.11
2023-03-20T19:14:09.601Z,7.99
2023-03-20T19:19:16.681Z,8.02
2023-03-20T19:24:22.483Z,8.06
2023-03-20T19:29:28.204Z,8.10
2023-03-20T19:35:22.061Z,8.08
2023-03-20T19:39:57.697Z,8.11
2023-03-20T19:45:01.970Z,8.10
2023-03-20T19:50:06.675Z,8.14
2023-03-20T19:55:13.896Z,8.06
2023-03-20T20:05:42.459Z,8.16
2023-03-20T20:10:50.456Z,8.24
2023-03-20T20:15:55.526Z,8.25
2023-03-20T20:26:30.887Z,8.34
2023-03-20T20:31:36.002Z,8.36
2023-03-20T20:37:32.318Z,8.41
2023-03-20T20:42:06.266Z,8.44
2023-03-20T20:47:10.553Z,8.50
2023-03-20T20:52:15.657Z,8.52
2023-03-20T20:57:21.154Z,8.56
2023-03-20T21:02:25.454Z,8.60
2023-03-20T21:07:30.925Z,8.61
2023-03-20T21:12:48.365Z,8.60
2023-03-20T21:18:01.843Z,8.60
2023-03-20T21:23:06.684Z,8.62
2023-03-20T21:28:12.242Z,8.59
2023-03-20T21:33:16.548Z,8.56
2023-03-20T21:43:47.724Z,8.47
2023-03-20T21:49:46.555Z,8.45
2023-03-20T22:11:26.157Z,8.47
2023-03-20T22:17:00.519Z,8.50
2023-03-20T22:22:00.814Z,8.51
2023-03-20T22:32:52.101Z,8.48
2023-03-20T22:43:59.895Z,8.56
2023-03-20T22:48:23.881Z,8.59
2023-03-20T22:53:28.021Z,8.63
2023-03-20T22:58:32.127Z,8.65
2023-03-20T23:03:41.874Z,8.64
2023-03-20T23:08:52.272Z,8.67
2023-03-20T23:14:22.010Z,8.68
2023-03-20T23:19:29.947Z,8.68
2023-03-20T23:24:36.255Z,8.70
2023-03-20T23:29:40.976Z,8.66
2023-03-20T23:34:46.933Z,8.64
2023-03-20T23:39:51.050Z,8.61
2023-03-20T23:44:58.703Z,8.67
2023-03-20T23:50:09.661Z,8.61
2023-03-20T23:55:14.653Z,8.63
